Oakdale, Connecticut
Current Conditions -  °F | °C
As of 10:56 PM on Wednesday 17 Dec 2014 (Local Time) from KGON Reporting Station
Clear Clear  
Wind Chill: 33°   Ceiling: Unl
Heat Index: 40°   Visibility: 9mi
Dew Point: 32°   Wind: 12mph
Humidity: 73%   Direction: 290°WNW
Pressure: 29.81"   Gusts: NA
Location:  41.47°N, 72.16°W
Report Text: KGON 180356Z AUTO 29010KT 9SM CLR 04/00 A2981 RMK AO2 SLP094 T00440000
Loading
Personal Weather Stations






























Interactive Weather Map New forecast layout! Learn more

10-Day Weather Forecast

Advertisements
Track Severe Weather on mobile